| time (UTC) | temp F | wind direction | speed MPH | gust MPH | rain 1hr in | rain 24hr in | rain mn in | humidity % | barometer mb |
| 20260903235849 | 73 | 323 | 1.0 | 2.0 | 0.00 | 0.00 | 0.00 | 10 | 1010.7 |
| 20260903235345 | 72 | 313 | 1.0 | 3.0 | 0.00 | 0.00 | 0.00 | 10 | 1010.4 |
| 20260903234844 | 73 | 293 | 0.0 | 2.0 | 0.00 | 0.00 | 0.00 | 10 | 1010.4 |
| 20260903234340 | 73 | 303 | 1.0 | 3.0 | 0.00 | 0.00 | 0.00 | 10 | 1010.3 |
| 20260903233837 | 73 | 331 | 0.0 | 2.0 | 0.00 | 0.00 | 0.00 | 10 | 1010.2 |
| 20260903233332 | 73 | 296 | 0.0 | 1.0 | 0.00 | 0.00 | 0.00 | 10 | 1010.4 |
| 20260903232831 | 73 | 318 | 1.0 | 3.0 | 0.00 | 0.00 | 0.00 | 10 | 1010.5 |
| 20260903232327 | 73 | 307 | 0.0 | 5.0 | 0.00 | 0.00 | 0.00 | 10 | 1010.3 |
| 20260903231826 | 73 | 330 | 2.0 | 3.0 | 0.00 | 0.00 | 0.00 | 10 | 1010.3 |
| 20260903231322 | 73 | 309 | 1.0 | 3.0 | 0.00 | 0.00 | 0.00 | 10 | 1010.4 |
| 20260903230817 | 73 | 315 | 0.0 | 1.0 | 0.00 | 0.00 | 0.00 | 10 | 1010.4 |
| 20260903230312 | 74 | 296 | 10.0 | 17.0 | 0.00 | 0.00 | 0.00 | 10 | 1010.3 |
| 20260903225808 | 75 | 309 | 1.0 | 2.0 | 0.00 | 0.00 | 0.00 | 10 | 1010.1 |
| 20260903225306 | 74 | 328 | 0.0 | 0.0 | 0.00 | 0.00 | 0.00 | 10 | 1010.0 |
| 20260903224801 | 73 | 321 | 0.0 | 3.0 | 0.00 | 0.00 | 0.00 | 10 | 1010.0 |
| 20260903224256 | 75 | 309 | 0.0 | 1.0 | 0.00 | 0.00 | 0.00 | 10 | 1009.9 |
| 20260903223751 | 75 | 320 | 0.0 | 0.0 | 0.00 | 0.00 | 0.00 | 10 | 1010.0 |
| 20260903223250 | 74 | 331 | 0.0 | 1.0 | 0.00 | 0.00 | 0.00 | 10 | 1009.8 |
| 20260903222745 | 75 | 304 | 1.0 | 2.0 | 0.00 | 0.00 | 0.00 | 10 | 1009.7 |
| 20260903222244 | 76 | 332 | 0.0 | 1.0 | 0.00 | 0.00 | 0.00 | 10 | 1009.6 |
| 20260903221739 | 74 | 334 | 0.0 | 0.0 | 0.00 | 0.00 | 0.00 | 10 | 1009.7 |
| 20260903221238 | 74 | 288 | 0.0 | 1.0 | 0.00 | 0.00 | 0.00 | 10 | 1009.7 |
| 20260903220736 | 75 | 321 | 0.0 | 2.0 | 0.00 | 0.00 | 0.00 | 10 | 1009.6 |
| 20260903220231 | 76 | 279 | 0.0 | 1.0 | 0.00 | 0.00 | 0.00 | 10 | 1009.6 |
| 20260903215730 | 77 | 240 | 0.0 | 2.0 | 0.00 | 0.00 | 0.00 | 10 | 1009.7 |
| 20260903215226 | 74 | 322 | 0.0 | 1.0 | 0.00 | 0.00 | 0.00 | 10 | 1009.3 |
| 20260903214724 | 74 | 318 | 0.0 | 2.0 | 0.00 | 0.00 | 0.00 | 10 | 1009.4 |
| 20260903214220 | 74 | 337 | 0.0 | 1.0 | 0.00 | 0.00 | 0.00 | 10 | 1009.6 |
| 20260903213714 | 75 | 345 | 0.0 | 1.0 | 0.00 | 0.00 | 0.00 | 10 | 1009.4 |
| 20260903213211 | 73 | 308 | 0.0 | 2.0 | 0.00 | 0.00 | 0.00 | 10 | 1009.2 |
| 20260903212706 | 73 | 349 | 0.0 | 0.0 | 0.00 | 0.00 | 0.00 | 10 | 1009.7 |
| 20260903212202 | 74 | 252 | 0.0 | 0.0 | 0.00 | 0.00 | 0.00 | 10 | 1009.6 |
| 20260903211655 | 75 | 323 | 0.0 | 1.0 | 0.00 | 0.00 | 0.00 | 10 | 1009.3 |
| 20260903211152 | 75 | 248 | 0.0 | 1.0 | 0.00 | 0.00 | 0.00 | 10 | 1009.3 |
| 20260903210648 | 73 | 46 | 0.0 | 0.0 | 0.00 | 0.00 | 0.00 | 10 | 1009.4 |
| 20260903210143 | 74 | 284 | 0.0 | 0.0 | 0.00 | 0.00 | 0.00 | 10 | 1009.6 |
| 20260903205643 | 72 | 223 | 0.0 | 0.0 | 0.00 | 0.00 | 0.00 | 10 | 1009.6 |
| 20260903205136 | 72 | 313 | 0.0 | 0.0 | 0.00 | 0.00 | 0.00 | 10 | 1009.6 |
| 20260903204632 | 72 | 322 | 0.0 | 0.0 | 0.00 | 0.00 | 0.00 | 10 | 1009.4 |
| 20260903204128 | 73 | 202 | 0.0 | 0.0 | 0.00 | 0.00 | 0.00 | 10 | 1009.8 |
| 20260903203623 | 73 | 248 | 0.0 | 0.0 | 0.00 | 0.00 | 0.00 | 10 | 1009.9 |
| 20260903203118 | 71 | 284 | 0.0 | 0.0 | 0.00 | 0.00 | 0.00 | 10 | 1010.0 |
| 20260903202613 | 71 | 295 | 0.0 | 2.0 | 0.00 | 0.00 | 0.00 | 10 | 1010.0 |
| 20260903202108 | 72 | 294 | 0.0 | 1.0 | 0.00 | 0.00 | 0.00 | 10 | 1009.7 |
| 20260903201603 | 73 | 306 | 0.0 | 2.0 | 0.00 | 0.00 | 0.00 | 10 | 1009.7 |
| 20260903201102 | 72 | 318 | 0.0 | 1.0 | 0.00 | 0.00 | 0.00 | 10 | 1009.7 |
| 20260903200552 | 71 | 267 | 1.0 | 2.0 | 0.00 | 0.00 | 0.00 | 10 | 1009.7 |
| 20260903200047 | 73 | 237 | 0.0 | 1.0 | 0.00 | 0.00 | 0.00 | 10 | 1010.1 |
| 20260903195543 | 74 | 247 | 0.0 | 0.0 | 0.00 | 0.00 | 0.00 | 10 | 1009.6 |
| 20260903195038 | 73 | 277 | 0.0 | 2.0 | 0.00 | 0.00 | 0.00 | 10 | 1009.6 |
| 20260903194533 | 73 | 313 | 0.0 | 2.0 | 0.00 | 0.00 | 0.00 | 10 | 1009.7 |
| 20260903194028 | 74 | 281 | 0.0 | 1.0 | 0.00 | 0.00 | 0.00 | 10 | 1009.7 |
| 20260903193524 | 73 | 237 | 0.0 | 2.0 | 0.00 | 0.00 | 0.00 | 10 | 1009.4 |
| 20260903193019 | 72 | 306 | 0.0 | 3.0 | 0.00 | 0.00 | 0.00 | 10 | 1009.9 |
| 20260903192517 | 71 | 293 | 0.0 | 2.0 | 0.00 | 0.00 | 0.00 | 10 | 1009.6 |
| 20260903192016 | 72 | 330 | 0.0 | 2.0 | 0.00 | 0.00 | 0.00 | 10 | 1009.7 |
| 20260903191513 | 72 | 295 | 0.0 | 2.0 | 0.00 | 0.00 | 0.00 | 10 | 1009.7 |
| 20260903191007 | 72 | 255 | 0.0 | 2.0 | 0.00 | 0.00 | 0.00 | 10 | 1009.9 |
| 20260903190507 | 73 | 289 | 0.0 | 2.0 | 0.00 | 0.00 | 0.00 | 10 | 1009.7 |
| 20260903190001 | 72 | 290 | 0.0 | 2.0 | 0.00 | 0.00 | 0.00 | 10 | 1009.9 |
| 20260903185457 | 72 | 272 | 0.0 | 1.0 | 0.00 | 0.00 | 0.00 | 10 | 1009.8 |
| 20260903184957 | 73 | 234 | 8.0 | 15.0 | 0.00 | 0.00 | 0.00 | 10 | 1009.6 |
| 20260903184454 | 71 | 248 | 1.0 | 5.0 | 0.00 | 0.00 | 0.00 | 10 | 1009.7 |
| 20260903183954 | 71 | 255 | 0.0 | 3.0 | 0.00 | 0.00 | 0.00 | 10 | 1009.4 |
| 20260903183448 | 72 | 256 | 0.0 | 14.0 | 0.00 | 0.00 | 0.00 | 10 | 1009.6 |
| 20260903182948 | 71 | 259 | 0.0 | 1.0 | 0.00 | 0.00 | 0.00 | 10 | 1009.6 |
| 20260903182447 | 69 | 59 | 0.0 | 1.0 | 0.00 | 0.00 | 0.00 | 10 | 1009.7 |
| 20260903181943 | 69 | 275 | 0.0 | 0.0 | 0.00 | 0.00 | 0.00 | 10 | 1009.3 |
| 20260903181441 | 71 | 298 | 0.0 | 1.0 | 0.00 | 0.00 | 0.00 | 10 | 1009.6 |
| 20260903180936 | 69 | 235 | 0.0 | 0.0 | 0.00 | 0.00 | 0.00 | 10 | 1009.7 |
| 20260903180431 | 70 | 231 | 0.0 | 0.0 | 0.00 | 0.00 | 0.00 | 10 | 1009.8 |
| 20260903175930 | 70 | 259 | 0.0 | 1.0 | 0.00 | 0.00 | 0.00 | 10 | 1009.7 |
| 20260903175425 | 69 | 277 | 0.0 | 2.0 | 0.00 | 0.00 | 0.00 | 10 | 1010.0 |
| 20260903174919 | 69 | 265 | 0.0 | 6.0 | 0.00 | 0.00 | 0.00 | 10 | 1010.2 |
| 20260903174415 | 69 | 259 | 0.0 | 1.0 | 0.00 | 0.00 | 0.00 | 10 | 1009.9 |
| 20260903173914 | 68 | 220 | 0.0 | 1.0 | 0.00 | 0.00 | 0.00 | 10 | 1010.1 |
| 20260903173415 | 67 | 291 | 0.0 | 1.0 | 0.00 | 0.00 | 0.00 | 10 | 1010.0 |
| 20260903172911 | 67 | 294 | 0.0 | 2.0 | 0.00 | 0.00 | 0.00 | 10 | 1010.0 |
| 20260903172411 | 67 | 301 | 0.0 | 5.0 | 0.00 | 0.00 | 0.00 | 10 | 1010.0 |
| 20260903171906 | 67 | 314 | 0.0 | 2.0 | 0.00 | 0.00 | 0.00 | 10 | 1010.1 |
| 20260903171401 | 67 | 292 | 0.0 | 1.0 | 0.00 | 0.00 | 0.00 | 10 | 1010.1 |
| 20260903170901 | 65 | 248 | 0.0 | 0.0 | 0.00 | 0.00 | 0.00 | 10 | 1010.0 |
| 20260903170355 | 65 | 318 | 0.0 | 1.0 | 0.00 | 0.00 | 0.00 | 10 | 1009.9 |
| 20260903165854 | 64 | 310 | 0.0 | 0.0 | 0.00 | 0.00 | 0.00 | 10 | 1009.9 |
| 20260903165349 | 64 | 308 | 0.0 | 0.0 | 0.00 | 0.00 | 0.00 | 10 | 1009.9 |
| 20260903164844 | 63 | 292 | 0.0 | 1.0 | 0.00 | 0.00 | 0.00 | 10 | 1010.1 |
| 20260903164339 | 61 | 297 | 0.0 | 1.0 | 0.00 | 0.00 | 0.00 | 10 | 1010.1 |
| 20260903163838 | 61 | 329 | 0.0 | 1.0 | 0.00 | 0.00 | 0.00 | 10 | 1009.8 |
| 20260903163335 | 60 | 293 | 0.0 | 1.0 | 0.00 | 0.00 | 0.00 | 10 | 1010.1 |
| 20260903162830 | 59 | 299 | 0.0 | 1.0 | 0.00 | 0.00 | 0.00 | 10 | 1009.9 |
| 20260903162327 | 59 | 284 | 0.0 | 0.0 | 0.00 | 0.00 | 0.00 | 10 | 1009.9 |
| 20260903161822 | 59 | 280 | 0.0 | 0.0 | 0.00 | 0.00 | 0.00 | 10 | 1010.0 |
| 20260903161318 | 59 | 345 | 0.0 | 0.0 | 0.00 | 0.00 | 0.00 | 10 | 1010.0 |
| 20260903160813 | 59 | 288 | 0.0 | 0.0 | 0.00 | 0.00 | 0.00 | 10 | 1010.0 |
| 20260903160312 | 59 | 269 | 0.0 | 0.0 | 0.00 | 0.00 | 0.00 | 10 | 1010.0 |
| 20260903155811 | 58 | 274 | 0.0 | 0.0 | 0.00 | 0.00 | 0.00 | 10 | 1009.7 |
| 20260903155306 | 58 | 290 | 0.0 | 0.0 | 0.00 | 0.00 | 0.00 | 10 | 1009.9 |
| 20260903154801 | 58 | 281 | 0.0 | 0.0 | 0.00 | 0.00 | 0.00 | 10 | 1009.9 |
| 20260903154257 | 57 | 274 | 0.0 | 0.0 | 0.00 | 0.00 | 0.00 | 10 | 1009.7 |
| 20260903153753 | 57 | 267 | 0.0 | 1.0 | 0.00 | 0.00 | 0.00 | 10 | 1009.9 |
| 20260903153249 | 57 | 226 | 0.0 | 1.0 | 0.00 | 0.00 | 0.00 | 10 | 1009.9 |
| 20260903152744 | 57 | 283 | 0.0 | 1.0 | 0.00 | 0.00 | 0.00 | 10 | 1009.9 |
| 20260903152240 | 56 | 293 | 0.0 | 1.0 | 0.00 | 0.00 | 0.00 | 10 | 1009.8 |
| 20260903151740 | 56 | 229 | 0.0 | 2.0 | 0.00 | 0.00 | 0.00 | 10 | 1009.9 |
| 20260903151236 | 56 | 204 | 0.0 | 2.0 | 0.00 | 0.00 | 0.00 | 10 | 1009.8 |
| 20260903150730 | 57 | 287 | 0.0 | 0.0 | 0.00 | 0.00 | 0.00 | 10 | 1010.1 |
| 20260903150225 | 56 | 231 | 0.0 | 1.0 | 0.00 | 0.00 | 0.00 | 10 | 1009.8 |
| 20260903145726 | 56 | 197 | 0.0 | 0.0 | 0.00 | 0.00 | 0.00 | 10 | 1009.9 |
| 20260903145221 | 55 | 321 | 0.0 | 0.0 | 0.00 | 0.00 | 0.00 | 10 | 1009.8 |
| 20260903144719 | 55 | 256 | 0.0 | 0.0 | 0.00 | 0.00 | 0.00 | 10 | 1010.1 |
| 20260903144215 | 55 | 290 | 0.0 | 1.0 | 0.00 | 0.00 | 0.00 | 10 | 1010.2 |
| 20260903143711 | 54 | 250 | 0.0 | 0.0 | 0.00 | 0.00 | 0.00 | 10 | 1009.8 |
| 20260903143207 | 53 | 268 | 0.0 | 0.0 | 0.00 | 0.00 | 0.00 | 10 | 1010.2 |
| 20260903142703 | 53 | 266 | 0.0 | 2.0 | 0.00 | 0.00 | 0.00 | 10 | 1009.8 |
| 20260903142159 | 52 | 275 | 0.0 | 0.0 | 0.00 | 0.00 | 0.00 | 10 | 1009.9 |
| 20260903141654 | 51 | 259 | 0.0 | 0.0 | 0.00 | 0.00 | 0.00 | 10 | 1009.7 |
| 20260903141148 | 50 | 240 | 0.0 | 0.0 | 0.00 | 0.00 | 0.00 | 10 | 1009.7 |
| 20260903140644 | 50 | 261 | 0.0 | 0.0 | 0.00 | 0.00 | 0.00 | 10 | 1009.6 |
| 20260903140140 | 50 | 265 | 0.0 | 0.0 | 0.00 | 0.00 | 0.00 | 10 | 1009.4 |
| 20260903135635 | 50 | 242 | 0.0 | 0.0 | 0.00 | 0.00 | 0.00 | 10 | 1009.3 |
| 20260903135130 | 50 | 259 | 0.0 | 0.0 | 0.00 | 0.00 | 0.00 | 10 | 1009.3 |
| 20260903134629 | 49 | 250 | 0.0 | 1.0 | 0.00 | 0.00 | 0.00 | 10 | 1009.7 |
| 20260903134125 | 48 | 233 | 0.0 | 1.0 | 0.00 | 0.00 | 0.00 | 10 | 1009.4 |
| 20260903133623 | 49 | 244 | 0.0 | 0.0 | 0.00 | 0.00 | 0.00 | 10 | 1009.4 |
| 20260903133119 | 48 | 232 | 0.0 | 1.0 | 0.00 | 0.00 | 0.00 | 10 | 1009.4 |
| 20260903132614 | 48 | 241 | 0.0 | 0.0 | 0.00 | 0.00 | 0.00 | 10 | 1009.2 |
| 20260903132113 | 48 | 335 | 0.0 | 0.0 | 0.00 | 0.00 | 0.00 | 10 | 1009.2 |
| 20260903131608 | 47 | 333 | 0.0 | 0.0 | 0.00 | 0.00 | 0.00 | 10 | 1009.1 |
| 20260903131107 | 47 | 277 | 0.0 | 0.0 | 0.00 | 0.00 | 0.00 | 10 | 1009.2 |
| 20260903130602 | 46 | 287 | 0.0 | 0.0 | 0.00 | 0.00 | 0.00 | 10 | 1009.2 |
| 20260903130057 | 45 | 293 | 0.0 | 0.0 | 0.00 | 0.00 | 0.00 | 10 | 1008.9 |
| 20260903125555 | 44 | 297 | 0.0 | 0.0 | 0.00 | 0.00 | 0.00 | 10 | 1009.2 |
| 20260903125051 | 44 | 303 | 0.0 | 0.0 | 0.00 | 0.00 | 0.00 | 10 | 1009.1 |
| 20260903124550 | 44 | 328 | 0.0 | 0.0 | 0.00 | 0.00 | 0.00 | 10 | 1008.9 |
| 20260903124045 | 44 | 287 | 0.0 | 0.0 | 0.00 | 0.00 | 0.00 | 10 | 1008.8 |
| 20260903123544 | 45 | 297 | 0.0 | 1.0 | 0.00 | 0.00 | 0.00 | 10 | 1008.6 |
| 20260903123043 | 46 | 307 | 0.0 | 1.0 | 0.00 | 0.00 | 0.00 | 10 | 1008.7 |
| 20260903122542 | 47 | 335 | 1.0 | 2.0 | 0.00 | 0.00 | 0.00 | 10 | 1008.3 |
| 20260903122037 | 48 | 328 | 0.0 | 0.0 | 0.00 | 0.00 | 0.00 | 10 | 1008.6 |
| 20260903121532 | 49 | 301 | 0.0 | 0.0 | 0.00 | 0.00 | 0.00 | 10 | 1008.5 |
| 20260903121028 | 49 | 279 | 0.0 | 1.0 | 0.00 | 0.00 | 0.00 | 10 | 1008.2 |
| 20260903120526 | 49 | 295 | 0.0 | 2.0 | 0.00 | 0.00 | 0.00 | 10 | 1008.5 |
| 20260903120021 | 48 | 312 | 0.0 | 0.0 | 0.00 | 0.00 | 0.00 | 10 | 1008.5 |
| 20260903115519 | 47 | 304 | 0.0 | 1.0 | 0.00 | 0.00 | 0.00 | 10 | 1008.6 |
| 20260903115014 | 48 | 289 | 0.0 | 1.0 | 0.00 | 0.00 | 0.00 | 10 | 1008.6 |
| 20260903114509 | 47 | 306 | 0.0 | 0.0 | 0.00 | 0.00 | 0.00 | 10 | 1008.6 |
| 20260903114005 | 47 | 299 | 0.0 | 0.0 | 0.00 | 0.00 | 0.00 | 10 | 1008.5 |
| 20260903113500 | 47 | 300 | 0.0 | 0.0 | 0.00 | 0.00 | 0.00 | 10 | 1008.3 |
| 20260903112956 | 47 | 304 | 0.0 | 0.0 | 0.00 | 0.00 | 0.00 | 10 | 1008.7 |
| 20260903112452 | 47 | 330 | 0.0 | 0.0 | 0.00 | 0.00 | 0.00 | 10 | 1008.7 |
| 20260903111951 | 46 | 307 | 0.0 | 0.0 | 0.00 | 0.00 | 0.00 | 10 | 1008.6 |
| 20260903111445 | 46 | 320 | 0.0 | 0.0 | 0.00 | 0.00 | 0.00 | 10 | 1008.8 |
| 20260903110942 | 46 | 325 | 0.0 | 0.0 | 0.00 | 0.00 | 0.00 | 10 | 1008.7 |
| 20260903110437 | 46 | 0 | 0.0 | 0.0 | 0.00 | 0.00 | 0.00 | 10 | 1008.9 |
| 20260903105931 | 46 | 358 | 0.0 | 0.0 | 0.00 | 0.00 | 0.00 | 10 | 1008.6 |
| 20260903105427 | 45 | 306 | 0.0 | 0.0 | 0.00 | 0.00 | 0.00 | 10 | 1008.7 |
| 20260903104926 | 45 | 339 | 0.0 | 0.0 | 0.00 | 0.00 | 0.00 | 10 | 1008.7 |
| 20260903104420 | 45 | 7 | 0.0 | 0.0 | 0.00 | 0.00 | 0.00 | 10 | 1008.6 |
| 20260903103917 | 47 | 6 | 0.0 | 0.0 | 0.00 | 0.00 | 0.00 | 10 | 1008.8 |
| 20260903103413 | 46 | 349 | 0.0 | 0.0 | 0.00 | 0.00 | 0.00 | 10 | 1008.8 |
| 20260903102908 | 44 | 302 | 0.0 | 0.0 | 0.00 | 0.00 | 0.00 | 10 | 1008.8 |
| 20260903102403 | 44 | 314 | 0.0 | 0.0 | 0.00 | 0.00 | 0.00 | 10 | 1008.9 |
| 20260903101902 | 45 | 22 | 0.0 | 0.0 | 0.00 | 0.00 | 0.00 | 10 | 1009.0 |
| 20260903101357 | 45 | 303 | 0.0 | 0.0 | 0.00 | 0.00 | 0.00 | 10 | 1008.7 |
| 20260903100853 | 46 | 298 | 0.0 | 0.0 | 0.00 | 0.00 | 0.00 | 10 | 1008.7 |
| 20260903100348 | 46 | 302 | 0.0 | 0.0 | 0.00 | 0.00 | 0.00 | 10 | 1008.8 |
| 20260903095844 | 46 | 308 | 0.0 | 0.0 | 0.00 | 0.00 | 0.00 | 10 | 1008.9 |
| 20260903095339 | 48 | 337 | 0.0 | 0.0 | 0.00 | 0.00 | 0.00 | 10 | 1008.7 |
| 20260903094834 | 49 | 302 | 0.0 | 0.0 | 0.00 | 0.00 | 0.00 | 10 | 1009.0 |
| 20260903094328 | 48 | 336 | 0.0 | 0.0 | 0.00 | 0.00 | 0.00 | 10 | 1008.7 |
| 20260903093824 | 48 | 309 | 0.0 | 0.0 | 0.00 | 0.00 | 0.00 | 10 | 1008.9 |
| 20260903093319 | 51 | 312 | 0.0 | 0.0 | 0.00 | 0.00 | 0.00 | 10 | 1008.6 |
| 20260903092814 | 50 | 330 | 0.0 | 0.0 | 0.00 | 0.00 | 0.00 | 10 | 1008.8 |
| 20260903092309 | 51 | 335 | 0.0 | 0.0 | 0.00 | 0.00 | 0.00 | 10 | 1008.8 |
| 20260903091808 | 49 | 257 | 0.0 | 0.0 | 0.00 | 0.00 | 0.00 | 10 | 1008.7 |
| 20260903091301 | 48 | 359 | 0.0 | 0.0 | 0.00 | 0.00 | 0.00 | 10 | 1008.9 |
| 20260903090758 | 48 | 341 | 0.0 | 0.0 | 0.00 | 0.00 | 0.00 | 10 | 1008.5 |
| 20260903090256 | 48 | 17 | 0.0 | 0.0 | 0.00 | 0.00 | 0.00 | 10 | 1008.3 |
| 20260903085755 | 48 | 0 | 0.0 | 0.0 | 0.00 | 0.00 | 0.00 | 10 | 1008.2 |
| 20260903085250 | 49 | 346 | 0.0 | 0.0 | 0.00 | 0.00 | 0.00 | 10 | 1008.6 |
| 20260903084748 | 49 | 337 | 0.0 | 0.0 | 0.00 | 0.00 | 0.00 | 10 | 1008.6 |
| 20260903084243 | 49 | 355 | 0.0 | 0.0 | 0.00 | 0.00 | 0.00 | 10 | 1008.5 |
| 20260903083739 | 50 | 345 | 0.0 | 0.0 | 0.00 | 0.00 | 0.00 | 10 | 1008.3 |
| 20260903083238 | 51 | 317 | 0.0 | 0.0 | 0.00 | 0.00 | 0.00 | 10 | 1008.5 |
| 20260903082737 | 51 | 23 | 0.0 | 0.0 | 0.00 | 0.00 | 0.00 | 10 | 1008.3 |
| 20260903082233 | 49 | 305 | 0.0 | 0.0 | 0.00 | 0.00 | 0.00 | 10 | 1008.5 |
| 20260903081728 | 49 | 48 | 0.0 | 0.0 | 0.00 | 0.00 | 0.00 | 10 | 1008.6 |
| 20260903081224 | 49 | 48 | 0.0 | 0.0 | 0.00 | 0.00 | 0.00 | 10 | 1008.3 |
| 20260903080720 | 50 | 32 | 0.0 | 0.0 | 0.00 | 0.00 | 0.00 | 10 | 1008.5 |
| 20260903080217 | 50 | 248 | 0.0 | 0.0 | 0.00 | 0.00 | 0.00 | 10 | 1008.5 |
| 20260903075716 | 50 | 238 | 0.0 | 0.0 | 0.00 | 0.00 | 0.00 | 10 | 1008.5 |
| 20260903075212 | 51 | 223 | 0.0 | 0.0 | 0.00 | 0.00 | 0.00 | 10 | 1008.3 |
| 20260903074710 | 50 | 199 | 0.0 | 0.0 | 0.00 | 0.00 | 0.00 | 10 | 1008.5 |
| 20260903074206 | 50 | 181 | 0.0 | 0.0 | 0.00 | 0.00 | 0.00 | 10 | 1008.3 |
| 20260903073701 | 49 | 114 | 0.0 | 0.0 | 0.00 | 0.00 | 0.00 | 10 | 1008.5 |
| 20260903073156 | 50 | 101 | 0.0 | 0.0 | 0.00 | 0.00 | 0.00 | 10 | 1008.3 |
| 20260903072652 | 50 | 188 | 0.0 | 0.0 | 0.00 | 0.00 | 0.00 | 10 | 1008.6 |
| 20260903072149 | 50 | 323 | 0.0 | 0.0 | 0.00 | 0.00 | 0.00 | 10 | 1008.2 |
| 20260903071644 | 50 | 33 | 0.0 | 0.0 | 0.00 | 0.00 | 0.00 | 10 | 1008.3 |
| 20260903071139 | 50 | 13 | 0.0 | 0.0 | 0.00 | 0.00 | 0.00 | 10 | 1008.2 |
| 20260903070634 | 50 | 17 | 0.0 | 0.0 | 0.00 | 0.00 | 0.00 | 10 | 1008.1 |
| 20260903070130 | 50 | 40 | 0.0 | 0.0 | 0.00 | 0.00 | 0.00 | 10 | 1008.2 |
| 20260903065629 | 50 | 38 | 0.0 | 0.0 | 0.00 | 0.00 | 0.00 | 10 | 1008.3 |
| 20260903065124 | 50 | 38 | 0.0 | 0.0 | 0.00 | 0.00 | 0.00 | 10 | 1008.2 |
| 20260903064618 | 50 | 34 | 0.0 | 0.0 | 0.00 | 0.00 | 0.00 | 10 | 1008.3 |
| 20260903064113 | 50 | 345 | 0.0 | 0.0 | 0.00 | 0.00 | 0.00 | 10 | 1008.1 |
| 20260903063609 | 51 | 342 | 0.0 | 0.0 | 0.00 | 0.00 | 0.00 | 10 | 1008.5 |
| 20260903063104 | 50 | 305 | 0.0 | 1.0 | 0.00 | 0.00 | 0.00 | 10 | 1008.6 |
| 20260903062559 | 50 | 335 | 0.0 | 0.0 | 0.00 | 0.00 | 0.00 | 10 | 1008.6 |
| 20260903062054 | 50 | 246 | 0.0 | 0.0 | 0.00 | 0.00 | 0.00 | 10 | 1008.6 |
| 20260903061550 | 51 | 182 | 0.0 | 0.0 | 0.00 | 0.00 | 0.00 | 10 | 1008.5 |
| 20260903061049 | 51 | 154 | 0.0 | 0.0 | 0.00 | 0.00 | 0.00 | 10 | 1008.2 |
| 20260903060549 | 52 | 161 | 0.0 | 0.0 | 0.00 | 0.00 | 0.00 | 10 | 1008.3 |
| 20260903060044 | 53 | 191 | 0.0 | 0.0 | 0.00 | 0.00 | 0.00 | 10 | 1008.3 |
| 20260903055541 | 54 | 197 | 0.0 | 0.0 | 0.00 | 0.11 | 0.11 | 10 | 1008.3 |
| 20260903055040 | 54 | 217 | 0.0 | 0.0 | 0.00 | 0.11 | 0.11 | 10 | 1008.8 |
| 20260903054536 | 55 | 230 | 0.0 | 0.0 | 0.00 | 0.11 | 0.11 | 10 | 1008.7 |
| 20260903054031 | 54 | 250 | 0.0 | 0.0 | 0.00 | 0.11 | 0.11 | 10 | 1008.7 |
| 20260903053526 | 53 | 212 | 0.0 | 0.0 | 0.00 | 0.11 | 0.11 | 10 | 1008.6 |
| 20260903053023 | 53 | 211 | 0.0 | 0.0 | 0.00 | 0.11 | 0.11 | 10 | 1008.6 |
| 20260903052518 | 53 | 222 | 0.0 | 0.0 | 0.00 | 0.11 | 0.11 | 10 | 1008.2 |
| 20260903052014 | 53 | 221 | 0.0 | 0.0 | 0.00 | 0.11 | 0.11 | 10 | 1008.6 |
| 20260903051508 | 54 | 197 | 0.0 | 1.0 | 0.00 | 0.11 | 0.11 | 10 | 1008.6 |
| 20260903051004 | 55 | 238 | 0.0 | 1.0 | 0.00 | 0.11 | 0.11 | 10 | 1008.3 |
| 20260903050503 | 55 | 248 | 0.0 | 0.0 | 0.00 | 0.11 | 0.11 | 10 | 1008.7 |
| 20260903045957 | 54 | 246 | 0.0 | 2.0 | 0.00 | 0.11 | 0.11 | 10 | 1008.6 |
| 20260903045453 | 54 | 239 | 0.0 | 2.0 | 0.00 | 0.11 | 0.11 | 10 | 1009.0 |
| 20260903044949 | 54 | 249 | 0.0 | 2.0 | 0.00 | 0.11 | 0.11 | 10 | 1008.9 |
| 20260903044444 | 54 | 255 | 0.0 | 0.0 | 0.00 | 0.11 | 0.11 | 10 | 1008.8 |
| 20260903043941 | 53 | 244 | 0.0 | 0.0 | 0.00 | 0.11 | 0.11 | 10 | 1008.7 |
| 20260903043436 | 54 | 237 | 0.0 | 0.0 | 0.00 | 0.11 | 0.11 | 10 | 1008.8 |
| 20260903042934 | 53 | 255 | 0.0 | 0.0 | 0.00 | 0.11 | 0.11 | 10 | 1008.9 |
| 20260903042430 | 52 | 242 | 0.0 | 1.0 | 0.00 | 0.11 | 0.11 | 10 | 1008.7 |
| 20260903041926 | 53 | 267 | 0.0 | 0.0 | 0.00 | 0.11 | 0.11 | 10 | 1008.9 |
| 20260903041422 | 53 | 235 | 0.0 | 0.0 | 0.00 | 0.11 | 0.11 | 10 | 1008.8 |
| 20260903040918 | 53 | 234 | 0.0 | 0.0 | 0.00 | 0.11 | 0.11 | 10 | 1008.7 |
| 20260903040417 | 53 | 239 | 0.0 | 0.0 | 0.00 | 0.11 | 0.11 | 10 | 1008.9 |
| 20260903035913 | 53 | 262 | 0.0 | 0.0 | 0.00 | 0.11 | 0.11 | 10 | 1008.7 |
| 20260903035408 | 54 | 254 | 0.0 | 0.0 | 0.00 | 0.11 | 0.11 | 10 | 1008.6 |
| 20260903034903 | 54 | 251 | 0.0 | 1.0 | 0.00 | 0.11 | 0.11 | 10 | 1008.5 |
| 20260903034358 | 54 | 279 | 0.0 | 1.0 | 0.00 | 0.11 | 0.11 | 10 | 1008.6 |
| 20260903033853 | 54 | 229 | 0.0 | 0.0 | 0.00 | 0.11 | 0.11 | 10 | 1008.7 |
| 20260903033348 | 54 | 258 | 0.0 | 1.0 | 0.00 | 0.11 | 0.11 | 10 | 1008.3 |
| 20260903032848 | 53 | 269 | 1.0 | 1.0 | 0.00 | 0.11 | 0.11 | 10 | 1008.7 |
| 20260903032344 | 53 | 268 | 0.0 | 1.0 | 0.00 | 0.11 | 0.11 | 10 | 1008.6 |
| 20260903031839 | 53 | 259 | 0.0 | 1.0 | 0.00 | 0.11 | 0.11 | 10 | 1008.7 |
| 20260903031338 | 53 | 271 | 0.0 | 1.0 | 0.00 | 0.11 | 0.11 | 10 | 1008.7 |
| 20260903030834 | 54 | 288 | 0.0 | 1.0 | 0.00 | 0.11 | 0.11 | 10 | 1008.6 |
| 20260903030330 | 54 | 282 | 0.0 | 1.0 | 0.00 | 0.11 | 0.11 | 10 | 1008.7 |
| 20260903025826 | 55 | 297 | 0.0 | 2.0 | 0.00 | 0.11 | 0.11 | 10 | 1008.1 |
| 20260903025321 | 55 | 280 | 0.0 | 2.0 | 0.00 | 0.11 | 0.11 | 10 | 1008.5 |
| 20260903024821 | 55 | 263 | 0.0 | 15.0 | 0.00 | 0.11 | 0.11 | 10 | 1007.9 |
| 20260903024320 | 56 | 245 | 0.0 | 14.0 | 0.00 | 0.11 | 0.11 | 10 | 1007.8 |
| 20260903023816 | 56 | 297 | 1.0 | 11.0 | 0.00 | 0.11 | 0.11 | 10 | 1007.8 |
| 20260903023311 | 56 | 285 | 0.0 | 3.0 | 0.00 | 0.11 | 0.11 | 10 | 1008.1 |
| 20260903022806 | 56 | 311 | 1.0 | 2.0 | 0.00 | 0.11 | 0.11 | 10 | 1007.8 |
| 20260903022306 | 56 | 288 | 1.0 | 2.0 | 0.00 | 0.11 | 0.11 | 10 | 1008.3 |
| 20260903021759 | 57 | 257 | 3.0 | 18.0 | 0.00 | 0.11 | 0.11 | 10 | 1008.5 |
| 20260903021255 | 58 | 273 | 0.0 | 0.0 | 0.00 | 0.11 | 0.11 | 10 | 1008.3 |
| 20260903020754 | 58 | 256 | 0.0 | 0.0 | 0.00 | 0.11 | 0.11 | 10 | 1007.9 |
| 20260903020249 | 57 | 232 | 0.0 | 0.0 | 0.00 | 0.11 | 0.11 | 10 | 1007.7 |
| 20260903015744 | 58 | 236 | 0.0 | 0.0 | 0.00 | 0.11 | 0.11 | 10 | 1007.6 |
| 20260903015240 | 59 | 233 | 0.0 | 0.0 | 0.00 | 0.11 | 0.11 | 10 | 1007.6 |
| 20260903014735 | 59 | 222 | 0.0 | 0.0 | 0.00 | 0.11 | 0.11 | 10 | 1007.5 |
| 20260903014229 | 59 | 180 | 0.0 | 0.0 | 0.00 | 0.11 | 0.11 | 10 | 1008.0 |
| 20260903013724 | 59 | 196 | 0.0 | 0.0 | 0.00 | 0.11 | 0.11 | 10 | 1008.5 |
| 20260903013223 | 60 | 193 | 0.0 | 0.0 | 0.00 | 0.11 | 0.11 | 10 | 1008.2 |
| 20260903012722 | 59 | 174 | 0.0 | 0.0 | 0.00 | 0.11 | 0.11 | 10 | 1008.2 |
| 20260903012221 | 59 | 200 | 0.0 | 0.0 | 0.00 | 0.11 | 0.11 | 10 | 1008.1 |
| 20260903011716 | 59 | 175 | 0.0 | 0.0 | 0.00 | 0.11 | 0.11 | 10 | 1008.6 |
| 20260903011210 | 59 | 153 | 0.0 | 0.0 | 0.00 | 0.11 | 0.11 | 10 | 1008.2 |
| 20260903010706 | 60 | 178 | 0.0 | 0.0 | 0.00 | 0.11 | 0.11 | 10 | 1008.1 |
| 20260903010205 | 60 | 119 | 0.0 | 0.0 | 0.00 | 0.11 | 0.11 | 10 | 1008.1 |
| 20260903005704 | 59 | 210 | 0.0 | 0.0 | 0.00 | 0.11 | 0.11 | 10 | 1007.9 |
| 20260903005200 | 58 | 31 | 0.0 | 0.0 | 0.00 | 0.11 | 0.11 | 10 | 1007.4 |
| 20260903004655 | 58 | 21 | 0.0 | 0.0 | 0.00 | 0.11 | 0.11 | 10 | 1007.2 |
| 20260903004150 | 57 | 30 | 0.0 | 0.0 | 0.00 | 0.11 | 0.11 | 10 | 1007.9 |
| 20260903003646 | 57 | 45 | 0.0 | 0.0 | 0.00 | 0.11 | 0.11 | 10 | 1008.1 |
| 20260903003141 | 57 | 53 | 0.0 | 0.0 | 0.00 | 0.11 | 0.11 | 10 | 1008.9 |
| 20260903002636 | 57 | 48 | 0.0 | 0.0 | 0.00 | 0.11 | 0.11 | 10 | 1008.9 |
| 20260903002130 | 57 | 36 | 0.0 | 0.0 | 0.07 | 0.11 | 0.11 | 10 | 1009.2 |
| 20260903001624 | 58 | 6 | 0.0 | 0.0 | 0.00 | 0.10 | 0.10 | 10 | 1009.3 |
| 20260903001119 | 59 | 34 | 0.0 | 0.0 | 0.05 | 0.10 | 0.10 | 10 | 1009.7 |
| 20260903000615 | 59 | 266 | 0.0 | 2.0 | 0.12 | 0.10 | 0.10 | 10 | 1010.0 |